Saint George's, Canada
Current Conditions -  °F | °C
As of 12:00 PM on Monday 24 Nov 2014 (Local Time) from CYJT Reporting Station
Few Clouds Few Clouds  
Wind Chill: 24°   Ceiling: Unl
Heat Index: 30°   Visibility: 15mi
Dew Point: 19°   Wind: 6mph
Humidity: 64%   Direction: 60°ENE
Pressure: 30.31"   Gusts: NA
Location:  48.43°N, 58.5°W
Report Text: CYJT 241500Z 06005KT 15SM FEW210 M01/M07 A3031 RMK CI2 PRESFR SLP265
Loading
Personal Weather Stations






























Interactive Weather Map New forecast layout! Learn more

10-Day Weather Forecast

Advertisements
Track Severe Weather on mobile